sensor_id;sensor_type;location;lat;lon;timestamp;P1;durP1;ratioP1;P2;durP2;ratioP2
23280;SDS011;11809;56.390;-3.266;2023-02-11T00:01:09;0.52;;;0.20;;
23280;SDS011;11809;56.390;-3.266;2023-02-11T00:03:39;0.43;;;0.20;;
23280;SDS011;11809;56.390;-3.266;2023-02-11T00:06:07;0.20;;;0.20;;
23280;SDS011;11809;56.390;-3.266;2023-02-11T00:08:37;0.10;;;0.10;;
23280;SDS011;11809;56.390;-3.266;2023-02-11T00:11:04;0.10;;;0.10;;
23280;SDS011;11809;56.390;-3.266;2023-02-11T00:13:32;0.57;;;0.30;;
23280;SDS011;11809;56.390;-3.266;2023-02-11T00:15:58;0.32;;;0.15;;
23280;SDS011;11809;56.390;-3.266;2023-02-11T00:18:26;0.30;;;0.20;;
23280;SDS011;11809;56.390;-3.266;2023-02-11T00:20:53;0.52;;;0.15;;
23280;SDS011;11809;56.390;-3.266;2023-02-11T00:23:23;0.10;;;0.10;;
23280;SDS011;11809;56.390;-3.266;2023-02-11T00:25:50;0.32;;;0.20;;
23280;SDS011;11809;56.390;-3.266;2023-02-11T00:28:18;0.25;;;0.15;;
23280;SDS011;11809;56.390;-3.266;2023-02-11T00:30:45;0.10;;;0.10;;
23280;SDS011;11809;56.390;-3.266;2023-02-11T00:33:20;0.25;;;0.10;;
23280;SDS011;11809;56.390;-3.266;2023-02-11T00:35:47;0.10;;;0.10;;
23280;SDS011;11809;56.390;-3.266;2023-02-11T00:38:14;0.20;;;0.13;;
23280;SDS011;11809;56.390;-3.266;2023-02-11T00:40:41;0.28;;;0.10;;
23280;SDS011;11809;56.390;-3.266;2023-02-11T00:43:08;0.98;;;0.17;;
23280;SDS011;11809;56.390;-3.266;2023-02-11T00:45:35;0.08;;;0.08;;
23280;SDS011;11809;56.390;-3.266;2023-02-11T00:48:02;2.10;;;0.22;;
23280;SDS011;11809;56.390;-3.266;2023-02-11T00:50:29;0.17;;;0.10;;
23280;SDS011;11809;56.390;-3.266;2023-02-11T00:52:56;0.10;;;0.10;;
23280;SDS011;11809;56.390;-3.266;2023-02-11T00:55:23;0.20;;;0.10;;
23280;SDS011;11809;56.390;-3.266;2023-02-11T00:57:50;0.17;;;0.10;;
23280;SDS011;11809;56.390;-3.266;2023-02-11T01:00:17;0.52;;;0.10;;
23280;SDS011;11809;56.390;-3.266;2023-02-11T01:02:44;0.25;;;0.20;;
23280;SDS011;11809;56.390;-3.266;2023-02-11T01:05:11;0.52;;;0.17;;
23280;SDS011;11809;56.390;-3.266;2023-02-11T01:07:38;0.57;;;0.20;;
23280;SDS011;11809;56.390;-3.266;2023-02-11T01:10:05;0.20;;;0.10;;
23280;SDS011;11809;56.390;-3.266;2023-02-11T01:12:32;0.20;;;0.13;;
23280;SDS011;11809;56.390;-3.266;2023-02-11T01:15:02;1.33;;;0.20;;
23280;SDS011;11809;56.390;-3.266;2023-02-11T01:17:29;0.10;;;0.10;;
23280;SDS011;11809;56.390;-3.266;2023-02-11T01:19:56;0.10;;;0.10;;
23280;SDS011;11809;56.390;-3.266;2023-02-11T01:22:23;0.50;;;0.17;;
23280;SDS011;11809;56.390;-3.266;2023-02-11T01:24:50;0.22;;;0.10;;
23280;SDS011;11809;56.390;-3.266;2023-02-11T01:27:17;3.60;;;0.30;;
23280;SDS011;11809;56.390;-3.266;2023-02-11T01:29:44;0.25;;;0.20;;
23280;SDS011;11809;56.390;-3.266;2023-02-11T01:32:11;0.98;;;0.30;;
23280;SDS011;11809;56.390;-3.266;2023-02-11T01:34:38;0.25;;;0.13;;
23280;SDS011;11809;56.390;-3.266;2023-02-11T01:37:05;0.30;;;0.20;;
23280;SDS011;11809;56.390;-3.266;2023-02-11T01:39:32;0.43;;;0.10;;
23280;SDS011;11809;56.390;-3.266;2023-02-11T01:42:00;0.35;;;0.22;;
23280;SDS011;11809;56.390;-3.266;2023-02-11T01:44:29;0.50;;;0.17;;
23280;SDS011;11809;56.390;-3.266;2023-02-11T01:46:59;1.45;;;0.30;;
23280;SDS011;11809;56.390;-3.266;2023-02-11T01:49:27;0.55;;;0.25;;
23280;SDS011;11809;56.390;-3.266;2023-02-11T01:54:40;1.10;;;0.30;;
23280;SDS011;11809;56.390;-3.266;2023-02-11T01:57:32;0.47;;;0.10;;
23280;SDS011;11809;56.390;-3.266;2023-02-11T02:02:39;0.30;;;0.20;;
23280;SDS011;11809;56.390;-3.266;2023-02-11T02:11:00;0.30;;;0.20;;
23280;SDS011;11809;56.390;-3.266;2023-02-11T02:13:30;0.25;;;0.20;;
23280;SDS011;11809;56.390;-3.266;2023-02-11T02:16:10;1.00;;;0.10;;
23280;SDS011;11809;56.390;-3.266;2023-02-11T02:33:07;0.63;;;0.20;;
23280;SDS011;11809;56.390;-3.266;2023-02-11T02:38:20;0.73;;;0.30;;
23280;SDS011;11809;56.390;-3.266;2023-02-11T02:40:55;0.85;;;0.20;;
23280;SDS011;11809;56.390;-3.266;2023-02-11T02:43:27;0.90;;;0.30;;
23280;SDS011;11809;56.390;-3.266;2023-02-11T02:46:08;0.95;;;0.30;;
23280;SDS011;11809;56.390;-3.266;2023-02-11T02:48:39;0.52;;;0.30;;
23280;SDS011;11809;56.390;-3.266;2023-02-11T02:56:35;0.20;;;0.15;;
23280;SDS011;11809;56.390;-3.266;2023-02-11T03:01:56;0.80;;;0.30;;
23280;SDS011;11809;56.390;-3.266;2023-02-11T03:12:36;0.45;;;0.20;;
23280;SDS011;11809;56.390;-3.266;2023-02-11T03:15:04;1.70;;;0.20;;
23280;SDS011;11809;56.390;-3.266;2023-02-11T03:17:32;0.65;;;0.30;;
23280;SDS011;11809;56.390;-3.266;2023-02-11T03:20:02;1.63;;;0.30;;
23280;SDS011;11809;56.390;-3.266;2023-02-11T03:22:40;0.80;;;0.30;;
23280;SDS011;11809;56.390;-3.266;2023-02-11T03:25:16;0.98;;;0.30;;
23280;SDS011;11809;56.390;-3.266;2023-02-11T03:27:50;0.75;;;0.25;;
23280;SDS011;11809;56.390;-3.266;2023-02-11T03:30:30;2.05;;;0.47;;
23280;SDS011;11809;56.390;-3.266;2023-02-11T03:33:17;0.65;;;0.20;;
23280;SDS011;11809;56.390;-3.266;2023-02-11T03:35:53;0.60;;;0.30;;
23280;SDS011;11809;56.390;-3.266;2023-02-11T03:38:27;0.90;;;0.20;;
23280;SDS011;11809;56.390;-3.266;2023-02-11T03:40:57;0.45;;;0.20;;
23280;SDS011;11809;56.390;-3.266;2023-02-11T03:43:35;1.37;;;0.40;;
23280;SDS011;11809;56.390;-3.266;2023-02-11T03:46:07;1.85;;;0.40;;
23280;SDS011;11809;56.390;-3.266;2023-02-11T03:48:37;1.10;;;0.32;;
23280;SDS011;11809;56.390;-3.266;2023-02-11T03:51:08;0.95;;;0.45;;
23280;SDS011;11809;56.390;-3.266;2023-02-11T03:53:38;3.53;;;0.30;;
23280;SDS011;11809;56.390;-3.266;2023-02-11T03:56:10;0.63;;;0.38;;
23280;SDS011;11809;56.390;-3.266;2023-02-11T03:58:45;1.58;;;0.30;;
23280;SDS011;11809;56.390;-3.266;2023-02-11T04:01:14;1.27;;;0.30;;
23280;SDS011;11809;56.390;-3.266;2023-02-11T04:03:41;1.75;;;0.30;;
23280;SDS011;11809;56.390;-3.266;2023-02-11T04:06:08;1.13;;;0.40;;
23280;SDS011;11809;56.390;-3.266;2023-02-11T04:08:35;0.93;;;0.30;;
23280;SDS011;11809;56.390;-3.266;2023-02-11T04:11:02;0.22;;;0.20;;
23280;SDS011;11809;56.390;-3.266;2023-02-11T04:13:29;0.57;;;0.20;;
23280;SDS011;11809;56.390;-3.266;2023-02-11T04:15:56;0.40;;;0.20;;
23280;SDS011;11809;56.390;-3.266;2023-02-11T04:18:23;1.08;;;0.32;;
23280;SDS011;11809;56.390;-3.266;2023-02-11T04:20:50;1.33;;;0.30;;
23280;SDS011;11809;56.390;-3.266;2023-02-11T04:23:17;0.98;;;0.28;;
23280;SDS011;11809;56.390;-3.266;2023-02-11T04:25:44;0.82;;;0.40;;
23280;SDS011;11809;56.390;-3.266;2023-02-11T04:28:11;1.35;;;0.28;;
23280;SDS011;11809;56.390;-3.266;2023-02-11T04:30:38;0.50;;;0.20;;
23280;SDS011;11809;56.390;-3.266;2023-02-11T04:33:05;0.43;;;0.20;;
23280;SDS011;11809;56.390;-3.266;2023-02-11T04:35:31;0.50;;;0.30;;
23280;SDS011;11809;56.390;-3.266;2023-02-11T04:37:58;1.15;;;0.40;;
23280;SDS011;11809;56.390;-3.266;2023-02-11T04:40:25;1.38;;;0.30;;
23280;SDS011;11809;56.390;-3.266;2023-02-11T04:42:52;0.95;;;0.32;;
23280;SDS011;11809;56.390;-3.266;2023-02-11T04:45:19;0.60;;;0.30;;
23280;SDS011;11809;56.390;-3.266;2023-02-11T04:47:46;0.47;;;0.30;;
23280;SDS011;11809;56.390;-3.266;2023-02-11T04:50:13;1.52;;;0.40;;
23280;SDS011;11809;56.390;-3.266;2023-02-11T04:52:40;0.30;;;0.30;;
23280;SDS011;11809;56.390;-3.266;2023-02-11T04:55:07;0.47;;;0.20;;
23280;SDS011;11809;56.390;-3.266;2023-02-11T04:57:34;0.43;;;0.20;;
23280;SDS011;11809;56.390;-3.266;2023-02-11T05:00:01;0.73;;;0.25;;
23280;SDS011;11809;56.390;-3.266;2023-02-11T05:02:28;0.65;;;0.25;;
23280;SDS011;11809;56.390;-3.266;2023-02-11T05:04:55;0.65;;;0.25;;
23280;SDS011;11809;56.390;-3.266;2023-02-11T05:07:22;0.20;;;0.20;;
23280;SDS011;11809;56.390;-3.266;2023-02-11T05:09:49;0.52;;;0.25;;
23280;SDS011;11809;56.390;-3.266;2023-02-11T05:12:16;0.60;;;0.20;;
23280;SDS011;11809;56.390;-3.266;2023-02-11T05:14:43;1.65;;;0.20;;
23280;SDS011;11809;56.390;-3.266;2023-02-11T05:17:09;0.47;;;0.30;;
23280;SDS011;11809;56.390;-3.266;2023-02-11T05:19:36;0.45;;;0.30;;
23280;SDS011;11809;56.390;-3.266;2023-02-11T05:22:03;2.10;;;0.40;;
23280;SDS011;11809;56.390;-3.266;2023-02-11T05:24:30;0.88;;;0.30;;
23280;SDS011;11809;56.390;-3.266;2023-02-11T05:26:58;0.68;;;0.30;;
23280;SDS011;11809;56.390;-3.266;2023-02-11T05:29:25;0.82;;;0.30;;
23280;SDS011;11809;56.390;-3.266;2023-02-11T05:31:52;1.08;;;0.30;;
23280;SDS011;11809;56.390;-3.266;2023-02-11T05:34:19;0.85;;;0.30;;
23280;SDS011;11809;56.390;-3.266;2023-02-11T05:36:46;0.40;;;0.22;;
23280;SDS011;11809;56.390;-3.266;2023-02-11T05:39:13;0.77;;;0.20;;
23280;SDS011;11809;56.390;-3.266;2023-02-11T05:41:40;1.27;;;0.50;;
23280;SDS011;11809;56.390;-3.266;2023-02-11T05:44:07;0.60;;;0.20;;
23280;SDS011;11809;56.390;-3.266;2023-02-11T05:46:33;0.45;;;0.13;;
23280;SDS011;11809;56.390;-3.266;2023-02-11T05:49:00;0.98;;;0.40;;
23280;SDS011;11809;56.390;-3.266;2023-02-11T05:51:27;0.65;;;0.20;;
23280;SDS011;11809;56.390;-3.266;2023-02-11T05:53:54;1.42;;;0.20;;
23280;SDS011;11809;56.390;-3.266;2023-02-11T05:56:21;1.50;;;0.20;;
23280;SDS011;11809;56.390;-3.266;2023-02-11T05:58:48;0.90;;;0.30;;
23280;SDS011;11809;56.390;-3.266;2023-02-11T06:01:15;0.90;;;0.30;;
23280;SDS011;11809;56.390;-3.266;2023-02-11T06:03:42;1.77;;;0.75;;
23280;SDS011;11809;56.390;-3.266;2023-02-11T06:06:09;4.50;;;0.30;;
23280;SDS011;11809;56.390;-3.266;2023-02-11T06:08:37;5.05;;;0.55;;
23280;SDS011;11809;56.390;-3.266;2023-02-11T06:11:04;4.70;;;0.43;;
23280;SDS011;11809;56.390;-3.266;2023-02-11T06:13:32;2.67;;;0.28;;
23280;SDS011;11809;56.390;-3.266;2023-02-11T06:15:59;3.30;;;0.30;;
23280;SDS011;11809;56.390;-3.266;2023-02-11T06:18:27;1.40;;;0.30;;
23280;SDS011;11809;56.390;-3.266;2023-02-11T06:20:54;3.58;;;0.40;;
23280;SDS011;11809;56.390;-3.266;2023-02-11T06:23:22;3.42;;;0.40;;
23280;SDS011;11809;56.390;-3.266;2023-02-11T06:25:49;27.45;;;1.88;;
23280;SDS011;11809;56.390;-3.266;2023-02-11T06:28:17;25.08;;;1.27;;
23280;SDS011;11809;56.390;-3.266;2023-02-11T06:30:44;26.92;;;2.15;;
23280;SDS011;11809;56.390;-3.266;2023-02-11T06:33:11;30.42;;;2.35;;
23280;SDS011;11809;56.390;-3.266;2023-02-11T06:35:38;17.60;;;2.10;;
23280;SDS011;11809;56.390;-3.266;2023-02-11T06:38:05;22.40;;;1.48;;
23280;SDS011;11809;56.390;-3.266;2023-02-11T06:40:32;18.55;;;1.70;;
23280;SDS011;11809;56.390;-3.266;2023-02-11T06:42:59;16.33;;;1.60;;
23280;SDS011;11809;56.390;-3.266;2023-02-11T06:45:26;26.92;;;1.67;;
23280;SDS011;11809;56.390;-3.266;2023-02-11T06:47:53;31.58;;;1.52;;
23280;SDS011;11809;56.390;-3.266;2023-02-11T06:50:20;88.70;;;6.93;;
23280;SDS011;11809;56.390;-3.266;2023-02-11T06:52:47;77.25;;;4.45;;
23280;SDS011;11809;56.390;-3.266;2023-02-11T06:55:15;27.35;;;2.10;;
23280;SDS011;11809;56.390;-3.266;2023-02-11T06:57:42;22.27;;;1.20;;
23280;SDS011;11809;56.390;-3.266;2023-02-11T07:00:09;9.23;;;0.90;;
23280;SDS011;11809;56.390;-3.266;2023-02-11T07:02:36;19.33;;;1.52;;
23280;SDS011;11809;56.390;-3.266;2023-02-11T07:05:04;17.67;;;1.17;;
23280;SDS011;11809;56.390;-3.266;2023-02-11T07:07:32;15.13;;;0.98;;
23280;SDS011;11809;56.390;-3.266;2023-02-11T07:09:59;6.93;;;1.30;;
23280;SDS011;11809;56.390;-3.266;2023-02-11T07:12:28;42.42;;;3.13;;
23280;SDS011;11809;56.390;-3.266;2023-02-11T07:14:56;13.38;;;0.80;;
23280;SDS011;11809;56.390;-3.266;2023-02-11T07:17:23;15.85;;;1.27;;
23280;SDS011;11809;56.390;-3.266;2023-02-11T07:19:50;7.82;;;1.08;;
23280;SDS011;11809;56.390;-3.266;2023-02-11T07:22:17;5.10;;;0.60;;
23280;SDS011;11809;56.390;-3.266;2023-02-11T07:24:44;5.75;;;1.02;;
23280;SDS011;11809;56.390;-3.266;2023-02-11T07:27:11;12.70;;;1.30;;
23280;SDS011;11809;56.390;-3.266;2023-02-11T07:29:38;8.35;;;0.85;;
23280;SDS011;11809;56.390;-3.266;2023-02-11T07:32:05;8.35;;;1.02;;
23280;SDS011;11809;56.390;-3.266;2023-02-11T07:34:32;6.38;;;0.60;;
23280;SDS011;11809;56.390;-3.266;2023-02-11T07:36:59;3.03;;;0.70;;
23280;SDS011;11809;56.390;-3.266;2023-02-11T07:39:26;1.35;;;0.40;;
23280;SDS011;11809;56.390;-3.266;2023-02-11T07:41:53;4.45;;;0.70;;
23280;SDS011;11809;56.390;-3.266;2023-02-11T07:44:20;2.55;;;0.30;;
23280;SDS011;11809;56.390;-3.266;2023-02-11T07:46:47;11.90;;;0.80;;
23280;SDS011;11809;56.390;-3.266;2023-02-11T07:49:15;7.90;;;0.65;;
23280;SDS011;11809;56.390;-3.266;2023-02-11T07:51:42;5.13;;;0.90;;
23280;SDS011;11809;56.390;-3.266;2023-02-11T07:54:09;16.85;;;1.23;;
23280;SDS011;11809;56.390;-3.266;2023-02-11T07:56:37;6.45;;;0.73;;
23280;SDS011;11809;56.390;-3.266;2023-02-11T07:59:04;5.40;;;0.60;;
23280;SDS011;11809;56.390;-3.266;2023-02-11T08:01:31;6.38;;;0.73;;
23280;SDS011;11809;56.390;-3.266;2023-02-11T08:03:58;4.68;;;0.50;;
23280;SDS011;11809;56.390;-3.266;2023-02-11T08:06:28;7.78;;;0.80;;
23280;SDS011;11809;56.390;-3.266;2023-02-11T08:08:56;4.32;;;0.73;;
23280;SDS011;11809;56.390;-3.266;2023-02-11T08:11:25;13.13;;;1.02;;
23280;SDS011;11809;56.390;-3.266;2023-02-11T08:13:54;10.80;;;0.77;;
23280;SDS011;11809;56.390;-3.266;2023-02-11T08:18:58;13.38;;;1.58;;
23280;SDS011;11809;56.390;-3.266;2023-02-11T08:21:28;9.20;;;1.50;;
23280;SDS011;11809;56.390;-3.266;2023-02-11T08:23:55;10.27;;;1.90;;
23280;SDS011;11809;56.390;-3.266;2023-02-11T08:26:26;6.70;;;2.00;;
23280;SDS011;11809;56.390;-3.266;2023-02-11T08:28:55;3.38;;;2.15;;
23280;SDS011;11809;56.390;-3.266;2023-02-11T08:31:23;2.47;;;1.83;;
23280;SDS011;11809;56.390;-3.266;2023-02-11T08:33:55;8.20;;;2.08;;
23280;SDS011;11809;56.390;-3.266;2023-02-11T08:36:24;7.47;;;2.40;;
23280;SDS011;11809;56.390;-3.266;2023-02-11T08:38:55;4.57;;;2.70;;
23280;SDS011;11809;56.390;-3.266;2023-02-11T08:41:44;7.90;;;2.40;;
23280;SDS011;11809;56.390;-3.266;2023-02-11T08:44:12;2.78;;;1.92;;
23280;SDS011;11809;56.390;-3.266;2023-02-11T08:46:39;3.25;;;2.45;;
23280;SDS011;11809;56.390;-3.266;2023-02-11T08:49:05;6.20;;;2.50;;
23280;SDS011;11809;56.390;-3.266;2023-02-11T08:51:32;3.53;;;2.13;;
23280;SDS011;11809;56.390;-3.266;2023-02-11T08:53:59;6.45;;;2.20;;
23280;SDS011;11809;56.390;-3.266;2023-02-11T08:56:27;6.00;;;2.28;;
23280;SDS011;11809;56.390;-3.266;2023-02-11T08:58:56;2.88;;;2.05;;
23280;SDS011;11809;56.390;-3.266;2023-02-11T09:01:25;2.33;;;2.13;;
23280;SDS011;11809;56.390;-3.266;2023-02-11T09:03:54;3.30;;;2.17;;
23280;SDS011;11809;56.390;-3.266;2023-02-11T09:06:22;3.58;;;1.85;;
23280;SDS011;11809;56.390;-3.266;2023-02-11T09:08:51;5.18;;;2.33;;
23280;SDS011;11809;56.390;-3.266;2023-02-11T09:11:21;4.53;;;1.80;;
23280;SDS011;11809;56.390;-3.266;2023-02-11T09:13:52;3.63;;;1.65;;
23280;SDS011;11809;56.390;-3.266;2023-02-11T09:16:24;2.28;;;1.70;;
23280;SDS011;11809;56.390;-3.266;2023-02-11T09:18:55;1.63;;;1.40;;
23280;SDS011;11809;56.390;-3.266;2023-02-11T09:21:23;6.45;;;1.52;;
23280;SDS011;11809;56.390;-3.266;2023-02-11T09:23:50;27.60;;;2.78;;
23280;SDS011;11809;56.390;-3.266;2023-02-11T09:26:18;29.98;;;4.10;;
23280;SDS011;11809;56.390;-3.266;2023-02-11T09:28:47;7.10;;;1.88;;
23280;SDS011;11809;56.390;-3.266;2023-02-11T09:31:16;14.65;;;2.00;;
23280;SDS011;11809;56.390;-3.266;2023-02-11T09:33:46;18.63;;;1.63;;
23280;SDS011;11809;56.390;-3.266;2023-02-11T09:36:15;6.30;;;1.33;;
23280;SDS011;11809;56.390;-3.266;2023-02-11T09:38:50;26.52;;;2.50;;
23280;SDS011;11809;56.390;-3.266;2023-02-11T09:44:01;31.17;;;2.05;;
23280;SDS011;11809;56.390;-3.266;2023-02-11T09:46:32;8.87;;;1.23;;
23280;SDS011;11809;56.390;-3.266;2023-02-11T09:49:03;47.17;;;3.35;;
23280;SDS011;11809;56.390;-3.266;2023-02-11T09:51:34;31.52;;;3.25;;
23280;SDS011;11809;56.390;-3.266;2023-02-11T09:54:11;17.52;;;2.38;;
23280;SDS011;11809;56.390;-3.266;2023-02-11T09:56:48;29.10;;;2.03;;
23280;SDS011;11809;56.390;-3.266;2023-02-11T09:59:15;20.10;;;2.30;;
23280;SDS011;11809;56.390;-3.266;2023-02-11T10:09:50;14.88;;;1.52;;
23280;SDS011;11809;56.390;-3.266;2023-02-11T10:15:20;37.50;;;2.95;;
23280;SDS011;11809;56.390;-3.266;2023-02-11T10:17:53;13.40;;;1.90;;
23280;SDS011;11809;56.390;-3.266;2023-02-11T10:20:58;9.75;;;1.55;;
23280;SDS011;11809;56.390;-3.266;2023-02-11T10:23:44;38.47;;;3.08;;
23280;SDS011;11809;56.390;-3.266;2023-02-11T10:26:15;22.33;;;1.95;;
23280;SDS011;11809;56.390;-3.266;2023-02-11T10:28:45;20.92;;;1.85;;
23280;SDS011;11809;56.390;-3.266;2023-02-11T10:36:38;8.35;;;1.33;;
23280;SDS011;11809;56.390;-3.266;2023-02-11T10:39:18;6.22;;;0.65;;
23280;SDS011;11809;56.390;-3.266;2023-02-11T10:41:51;13.45;;;1.35;;
23280;SDS011;11809;56.390;-3.266;2023-02-11T10:46:47;15.18;;;1.70;;
23280;SDS011;11809;56.390;-3.266;2023-02-11T10:49:49;35.38;;;3.08;;
23280;SDS011;11809;56.390;-3.266;2023-02-11T10:54:56;26.42;;;2.28;;
23280;SDS011;11809;56.390;-3.266;2023-02-11T10:57:27;33.30;;;1.70;;
23280;SDS011;11809;56.390;-3.266;2023-02-11T10:59:59;12.35;;;1.10;;
23280;SDS011;11809;56.390;-3.266;2023-02-11T11:02:33;25.02;;;1.60;;
23280;SDS011;11809;56.390;-3.266;2023-02-11T11:05:17;20.83;;;1.30;;
23280;SDS011;11809;56.390;-3.266;2023-02-11T11:07:56;32.03;;;3.13;;
23280;SDS011;11809;56.390;-3.266;2023-02-11T11:10:30;43.60;;;2.80;;
23280;SDS011;11809;56.390;-3.266;2023-02-11T11:16:14;35.88;;;2.40;;
23280;SDS011;11809;56.390;-3.266;2023-02-11T11:18:44;13.82;;;1.45;;
23280;SDS011;11809;56.390;-3.266;2023-02-11T11:23:58;15.73;;;1.40;;
23280;SDS011;11809;56.390;-3.266;2023-02-11T11:26:27;16.95;;;1.15;;
23280;SDS011;11809;56.390;-3.266;2023-02-11T11:29:16;7.97;;;0.75;;
23280;SDS011;11809;56.390;-3.266;2023-02-11T11:31:54;10.05;;;0.60;;
23280;SDS011;11809;56.390;-3.266;2023-02-11T11:34:31;2.95;;;0.65;;
23280;SDS011;11809;56.390;-3.266;2023-02-11T11:40:07;7.03;;;0.50;;
23280;SDS011;11809;56.390;-3.266;2023-02-11T11:42:37;4.72;;;0.43;;
23280;SDS011;11809;56.390;-3.266;2023-02-11T11:47:50;9.55;;;0.73;;
23280;SDS011;11809;56.390;-3.266;2023-02-11T11:53:14;6.88;;;0.47;;
23280;SDS011;11809;56.390;-3.266;2023-02-11T11:55:47;3.22;;;0.40;;
23280;SDS011;11809;56.390;-3.266;2023-02-11T11:58:26;2.17;;;0.30;;
23280;SDS011;11809;56.390;-3.266;2023-02-11T12:09:08;4.45;;;0.25;;
23280;SDS011;11809;56.390;-3.266;2023-02-11T12:17:29;3.03;;;0.20;;
23280;SDS011;11809;56.390;-3.266;2023-02-11T12:46:13;9.23;;;0.80;;
23280;SDS011;11809;56.390;-3.266;2023-02-11T12:56:51;5.97;;;0.50;;
23280;SDS011;11809;56.390;-3.266;2023-02-11T13:01:46;18.20;;;0.95;;
23280;SDS011;11809;56.390;-3.266;2023-02-11T13:06:47;11.95;;;0.70;;
23280;SDS011;11809;56.390;-3.266;2023-02-11T13:09:18;37.90;;;2.92;;
23280;SDS011;11809;56.390;-3.266;2023-02-11T13:11:52;12.93;;;1.35;;
23280;SDS011;11809;56.390;-3.266;2023-02-11T13:14:32;9.23;;;0.55;;
23280;SDS011;11809;56.390;-3.266;2023-02-11T13:17:03;5.70;;;0.50;;
23280;SDS011;11809;56.390;-3.266;2023-02-11T13:19:44;22.00;;;2.08;;
23280;SDS011;11809;56.390;-3.266;2023-02-11T13:22:29;62.47;;;2.33;;
23280;SDS011;11809;56.390;-3.266;2023-02-11T13:30:20;13.98;;;1.20;;
23280;SDS011;11809;56.390;-3.266;2023-02-11T13:35:27;22.25;;;1.58;;
23280;SDS011;11809;56.390;-3.266;2023-02-11T13:38:03;9.10;;;1.10;;
23280;SDS011;11809;56.390;-3.266;2023-02-11T13:40:43;22.25;;;3.70;;
23280;SDS011;11809;56.390;-3.266;2023-02-11T13:43:21;38.78;;;4.03;;
23280;SDS011;11809;56.390;-3.266;2023-02-11T13:45:50;59.72;;;6.30;;
23280;SDS011;11809;56.390;-3.266;2023-02-11T13:48:24;38.38;;;7.30;;
23280;SDS011;11809;56.390;-3.266;2023-02-11T13:51:13;66.13;;;6.93;;
23280;SDS011;11809;56.390;-3.266;2023-02-11T13:53:49;32.47;;;7.32;;
23280;SDS011;11809;56.390;-3.266;2023-02-11T13:56:36;29.70;;;8.30;;
23280;SDS011;11809;56.390;-3.266;2023-02-11T13:59:56;57.55;;;25.58;;
23280;SDS011;11809;56.390;-3.266;2023-02-11T14:10:52;38.65;;;13.25;;
23280;SDS011;11809;56.390;-3.266;2023-02-11T14:29:16;20.10;;;2.95;;
23280;SDS011;11809;56.390;-3.266;2023-02-11T14:37:25;9.13;;;1.67;;
23280;SDS011;11809;56.390;-3.266;2023-02-11T14:42:41;1.92;;;0.70;;
23280;SDS011;11809;56.390;-3.266;2023-02-11T14:45:10;1.80;;;0.70;;
23280;SDS011;11809;56.390;-3.266;2023-02-11T14:50:31;7.93;;;0.80;;
23280;SDS011;11809;56.390;-3.266;2023-02-11T14:53:06;2.10;;;0.30;;
23280;SDS011;11809;56.390;-3.266;2023-02-11T14:55:39;17.02;;;0.93;;
23280;SDS011;11809;56.390;-3.266;2023-02-11T15:00:51;13.68;;;0.85;;
23280;SDS011;11809;56.390;-3.266;2023-02-11T15:03:27;5.55;;;0.38;;
23280;SDS011;11809;56.390;-3.266;2023-02-11T15:06:17;3.63;;;0.50;;
23280;SDS011;11809;56.390;-3.266;2023-02-11T15:08:50;8.15;;;1.23;;
23280;SDS011;11809;56.390;-3.266;2023-02-11T15:11:20;39.88;;;2.72;;
23280;SDS011;11809;56.390;-3.266;2023-02-11T15:13:49;18.85;;;1.73;;
23280;SDS011;11809;56.390;-3.266;2023-02-11T15:18:52;14.68;;;1.25;;
23280;SDS011;11809;56.390;-3.266;2023-02-11T15:21:25;30.63;;;2.40;;
23280;SDS011;11809;56.390;-3.266;2023-02-11T15:26:31;13.18;;;1.20;;
23280;SDS011;11809;56.390;-3.266;2023-02-11T15:28:59;9.57;;;1.00;;
23280;SDS011;11809;56.390;-3.266;2023-02-11T15:31:26;26.95;;;2.45;;
23280;SDS011;11809;56.390;-3.266;2023-02-11T15:33:56;19.10;;;1.42;;
23280;SDS011;11809;56.390;-3.266;2023-02-11T15:36:33;63.05;;;4.32;;
23280;SDS011;11809;56.390;-3.266;2023-02-11T15:42:14;35.20;;;2.20;;
23280;SDS011;11809;56.390;-3.266;2023-02-11T15:45:22;35.08;;;2.20;;
23280;SDS011;11809;56.390;-3.266;2023-02-11T15:47:55;24.35;;;1.58;;
23280;SDS011;11809;56.390;-3.266;2023-02-11T15:50:39;27.27;;;1.85;;
23280;SDS011;11809;56.390;-3.266;2023-02-11T15:58:26;46.63;;;3.63;;
23280;SDS011;11809;56.390;-3.266;2023-02-11T16:00:53;22.65;;;2.05;;
23280;SDS011;11809;56.390;-3.266;2023-02-11T16:03:26;18.73;;;1.35;;
23280;SDS011;11809;56.390;-3.266;2023-02-11T16:06:14;17.27;;;1.65;;
23280;SDS011;11809;56.390;-3.266;2023-02-11T16:08:42;45.78;;;3.60;;
23280;SDS011;11809;56.390;-3.266;2023-02-11T16:11:32;28.63;;;2.40;;
23280;SDS011;11809;56.390;-3.266;2023-02-11T16:14:01;30.98;;;2.30;;
23280;SDS011;11809;56.390;-3.266;2023-02-11T16:17:08;23.80;;;1.65;;
23280;SDS011;11809;56.390;-3.266;2023-02-11T16:19:45;31.17;;;2.42;;
23280;SDS011;11809;56.390;-3.266;2023-02-11T16:22:16;31.33;;;2.40;;
23280;SDS011;11809;56.390;-3.266;2023-02-11T16:24:46;32.83;;;2.40;;
23280;SDS011;11809;56.390;-3.266;2023-02-11T16:27:28;38.55;;;3.33;;
23280;SDS011;11809;56.390;-3.266;2023-02-11T16:30:07;26.45;;;2.47;;
23280;SDS011;11809;56.390;-3.266;2023-02-11T16:33:03;67.20;;;4.07;;
23280;SDS011;11809;56.390;-3.266;2023-02-11T16:35:31;58.20;;;3.92;;
23280;SDS011;11809;56.390;-3.266;2023-02-11T16:37:58;60.95;;;4.85;;
23280;SDS011;11809;56.390;-3.266;2023-02-11T16:40:25;40.13;;;3.40;;
23280;SDS011;11809;56.390;-3.266;2023-02-11T16:42:52;20.05;;;2.97;;
23280;SDS011;11809;56.390;-3.266;2023-02-11T16:45:20;19.20;;;2.30;;
23280;SDS011;11809;56.390;-3.266;2023-02-11T16:47:47;19.88;;;3.00;;
23280;SDS011;11809;56.390;-3.266;2023-02-11T16:50:18;20.58;;;3.10;;
23280;SDS011;11809;56.390;-3.266;2023-02-11T16:52:48;15.40;;;2.97;;
23280;SDS011;11809;56.390;-3.266;2023-02-11T16:55:17;12.00;;;2.30;;
23280;SDS011;11809;56.390;-3.266;2023-02-11T16:57:47;14.68;;;2.47;;
23280;SDS011;11809;56.390;-3.266;2023-02-11T17:00:14;18.67;;;2.78;;
23280;SDS011;11809;56.390;-3.266;2023-02-11T17:02:42;16.13;;;3.40;;
23280;SDS011;11809;56.390;-3.266;2023-02-11T17:05:16;11.85;;;2.90;;
23280;SDS011;11809;56.390;-3.266;2023-02-11T17:07:45;15.23;;;2.70;;
23280;SDS011;11809;56.390;-3.266;2023-02-11T17:10:13;7.30;;;2.22;;
23280;SDS011;11809;56.390;-3.266;2023-02-11T17:12:42;8.13;;;2.30;;
23280;SDS011;11809;56.390;-3.266;2023-02-11T17:15:09;9.30;;;2.40;;
23280;SDS011;11809;56.390;-3.266;2023-02-11T17:17:36;5.95;;;2.10;;
23280;SDS011;11809;56.390;-3.266;2023-02-11T17:20:03;8.52;;;1.80;;
23280;SDS011;11809;56.390;-3.266;2023-02-11T17:22:32;9.80;;;2.10;;
23280;SDS011;11809;56.390;-3.266;2023-02-11T17:24:59;11.00;;;1.85;;
23280;SDS011;11809;56.390;-3.266;2023-02-11T17:27:26;12.48;;;2.78;;
23280;SDS011;11809;56.390;-3.266;2023-02-11T17:29:53;18.38;;;2.05;;
23280;SDS011;11809;56.390;-3.266;2023-02-11T17:32:20;14.85;;;1.83;;
23280;SDS011;11809;56.390;-3.266;2023-02-11T17:34:47;13.40;;;2.00;;
23280;SDS011;11809;56.390;-3.266;2023-02-11T17:37:15;32.97;;;2.97;;
23280;SDS011;11809;56.390;-3.266;2023-02-11T17:39:42;13.43;;;2.22;;
23280;SDS011;11809;56.390;-3.266;2023-02-11T17:42:10;18.77;;;2.28;;
23280;SDS011;11809;56.390;-3.266;2023-02-11T17:44:37;16.65;;;2.40;;
23280;SDS011;11809;56.390;-3.266;2023-02-11T17:47:04;25.05;;;1.75;;
23280;SDS011;11809;56.390;-3.266;2023-02-11T17:49:31;11.70;;;1.95;;
23280;SDS011;11809;56.390;-3.266;2023-02-11T17:51:58;25.88;;;3.10;;
23280;SDS011;11809;56.390;-3.266;2023-02-11T17:54:25;5.45;;;1.67;;
23280;SDS011;11809;56.390;-3.266;2023-02-11T17:56:52;10.77;;;2.47;;
23280;SDS011;11809;56.390;-3.266;2023-02-11T17:59:23;23.20;;;2.75;;
23280;SDS011;11809;56.390;-3.266;2023-02-11T18:01:51;17.08;;;4.20;;
23280;SDS011;11809;56.390;-3.266;2023-02-11T18:04:18;11.63;;;3.85;;
23280;SDS011;11809;56.390;-3.266;2023-02-11T18:06:45;8.48;;;3.63;;